09:10
Airports
History
Links
Donate
Help keep this website running!
PayPal
Bitcoin
This page is community maintained. The information is intended for PC simulator navigation or reference.
Always use approved charts for navigation.
8NC3
Bill Johnsons
Bill Johnsons (8NC3)
Fayetteville, North Carolina, United States (28306)
4
Lat/Lng:34° 57' 2.6" N / 78° 51' 32.09" W
34.950721 / -78.858913
Elevation:95'ft / 29mMSL
ID / ICAO:8NC3
Runways:1
Longest:06-24
Grass 612m / 2,006ft
Nearby Weather08:53 GMT 2018-01-20
Nearby weather at KFAY, Fayetteville Rgnl/grannis Fiel located 3.0 nautical miles from 8NC3
Altimeter: 30.15
Visibility: 10.0 statute miles
Wind: 6 knots (from 220°)
Temp: 1°c / 34°f
Humidity: 64.1%

METAR: KFAY 200853Z 22006KT 10SM CLR 01/M05 A3015 RMK AO2 SLP205 T00061050 58007

(Powered by phpweather)
Nearby VORs <50NM
Nearby NDBs
Runway 06 / 24
Dimensions:611.5 x 18.3m 2006' x 60'ft
Surface:Grass
Edge Lights:Low intensity
Runway 06 [A]Runway 24 [B]
Heading:054°TH 234°TH
Lat:
Lng:
34° 56' 56.79"N
78° 51' 41.83"W
34° 57' 8.4"N
78° 51' 22.34"W
User Notes and Comments
34° 57' 2.6" N / 78° 51' 32.09" W
Distance To
Airport ID:
Nearby Airports
(C) Fayetteville Rgnl/grannis Fiel 3.0 NM
KFAY ( WX ) NNW 336°
(U) Grays Creek 4.0 NM
2GC SSE 167°
4 Southern Comforts Aerodrome 8.2 NM
35W SW 227°
(R) Tailwinds 9.4 NM
06NC SSW 205°
(R) Eastover Air Ranch 10.6 NM
6NC3 NNE 27°
(R) E T Field 11.2 NM
NC71 WSW 258°
4 Allens 12.3 NM
NC74 W 277°
VFR Chart
Flight Planning at SkyVector.com